Time;durP1;ratioP1;P1;durP2;ratioP2;P2;SDS_P1;SDS_P2;PMS_P1;PMS_P2;Temp;Humidity;BMP_temperature;BMP_pressure;BME280_temperature;BME280_humidity;BME280_pressure;Samples;Min_cycle;Max_cycle;Signal;HPM_P1;HPM_P2
2020/12/04 09:18:04;;;;;;;39.00;22.27;;;;;;;1.80;79.40;96572.09;5126479;27;20564;-78
2020/12/04 09:20:32;;;;;;;35.53;23.63;;;;;;;2.35;78.58;96558.88;5125202;27;40143;-78
2020/12/04 09:22:59;;;;;;;38.10;23.60;;;;;;;2.77;76.21;96549.94;5125988;27;41476;-77
2020/12/04 09:25:26;;;;;;;38.30;23.83;;;;;;;3.35;74.04;96566.81;5124561;27;43640;-76
2020/12/04 09:27:53;;;;;;;36.77;23.33;;;;;;;3.75;71.40;96580.53;5115992;22;42293;-77
2020/12/04 09:30:21;;;;;;;33.73;22.80;;;;;;;4.12;70.28;96572.66;5023712;28;40031;-76
2020/12/04 09:32:50;;;;;;;33.90;23.03;;;;;;;4.61;68.93;96575.91;5007171;28;42931;-76
2020/12/04 09:35:19;;;;;;;34.27;23.07;;;;;;;4.89;67.50;96581.72;5023801;28;42548;-75
2020/12/04 09:37:47;;;;;;;34.17;22.43;;;;;;;5.08;66.93;96581.97;5108268;22;42961;-75
2020/12/04 09:40:17;;;;;;;33.70;22.43;;;;;;;5.20;66.65;96562.66;5023433;28;40678;-75
2020/12/04 09:42:45;;;;;;;35.53;23.03;;;;;;;5.30;65.66;96579.38;5023618;28;42832;-75
2020/12/04 09:45:13;;;;;;;46.30;30.47;;;;;;;5.36;64.91;96584.13;5024244;28;43653;-75
2020/12/04 09:47:40;;;;;;;39.83;23.77;;;;;;;5.41;64.04;96599.53;5023753;28;42201;-76
2020/12/04 09:50:10;;;;;;;34.37;23.43;;;;;;;5.48;64.00;96597.25;5107857;22;40047;-76
2020/12/04 09:52:39;;;;;;;35.27;23.13;;;;;;;5.60;63.38;96605.00;5109288;22;41722;-78
2020/12/04 09:55:07;;;;;;;36.33;23.47;;;;;;;5.77;62.92;96601.06;5016031;28;42749;-79
2020/12/04 09:57:35;;;;;;;32.73;22.27;;;;;;;6.11;62.91;96602.69;5036089;28;42068;-80
2020/12/04 10:00:03;;;;;;;35.03;23.53;;;;;;;6.48;61.99;96600.53;5038148;28;40207;-87
2020/12/04 10:02:31;;;;;;;37.90;23.37;;;;;;;6.90;60.45;96626.88;5101198;22;41465;-83
2020/12/04 10:04:58;;;;;;;34.97;22.23;;;;;;;7.31;59.09;96630.44;5023353;28;42751;-80
2020/12/04 10:07:25;;;;;;;31.63;22.53;;;;;;;7.54;58.66;96595.91;5023849;28;42378;-80
2020/12/04 10:09:53;;;;;;;32.37;22.33;;;;;;;7.78;57.51;96607.94;5007830;28;41546;-81
2020/12/04 10:12:20;;;;;;;30.90;21.00;;;;;;;7.90;57.60;96614.78;5024226;28;42556;-82
2020/12/04 10:14:47;;;;;;;30.93;22.90;;;;;;;7.98;57.32;96616.72;5111633;22;45049;-79
2020/12/04 10:17:14;;;;;;;33.97;22.40;;;;;;;7.88;56.31;96603.53;5025164;28;42122;-80
2020/12/04 10:19:43;;;;;;;32.40;22.57;;;;;;;7.99;54.90;96600.78;5023775;28;39964;-77
2020/12/04 10:22:11;;;;;;;34.43;24.23;;;;;;;8.34;54.81;96610.03;5030807;28;41641;-80
2020/12/04 10:27:30;;;;;;;32.67;22.27;;;;;;;8.27;54.69;96594.75;5000082;28;42662;-77
2020/12/04 10:29:57;;;;;;;30.93;22.93;;;;;;;8.25;53.72;96612.50;5006796;28;40754;-80
2020/12/04 10:32:24;;;;;;;29.77;21.73;;;;;;;8.27;53.52;96602.66;4973865;28;42907;-81
2020/12/04 10:34:52;;;;;;;41.10;23.90;;;;;;;8.48;53.19;96610.47;4989630;28;42797;-86
2020/12/04 10:37:19;;;;;;;37.30;24.20;;;;;;;8.81;52.86;96603.94;5131939;22;41961;-80
2020/12/04 10:39:46;;;;;;;29.17;21.63;;;;;;;9.57;50.93;96596.81;5072226;28;41145;-80
2020/12/04 10:42:14;;;;;;;30.70;22.07;;;;;;;11.58;47.48;96623.78;5089696;28;42295;-78
2020/12/04 10:44:42;;;;;;;26.13;20.47;;;;;;;13.27;43.77;96639.44;5078885;28;43369;-81
2020/12/04 10:47:09;;;;;;;25.43;19.80;;;;;;;14.72;39.90;96649.81;5090114;28;41479;-82
2020/12/04 10:49:36;;;;;;;23.47;19.80;;;;;;;15.46;38.21;96650.94;5133286;22;40100;-79
2020/12/04 10:52:04;;;;;;;23.57;19.60;;;;;;;15.68;36.52;96665.31;4997353;28;42404;-80
2020/12/04 10:54:31;;;;;;;25.00;20.23;;;;;;;15.28;35.25;96682.44;5012869;28;45158;-79
2020/12/04 10:56:58;;;;;;;30.33;19.67;;;;;;;14.46;36.27;96634.16;5028870;28;42120;-78
2020/12/04 11:02:11;;;;;;;24.33;19.13;;;;;;;12.40;40.18;96608.09;5030468;28;41966;-81
2020/12/04 11:07:23;;;;;;;22.37;18.43;;;;;;;11.04;42.89;96578.03;5030213;28;42340;-83
2020/12/04 11:09:50;;;;;;;28.77;19.00;;;;;;;11.12;43.03;96586.91;5013055;28;39847;-80
2020/12/04 11:12:17;;;;;;;23.23;18.27;;;;;;;10.87;43.54;96577.09;5104884;22;42405;-81
2020/12/04 11:14:44;;;;;;;24.43;18.27;;;;;;;10.69;44.53;96581.56;5031218;28;42667;-81
2020/12/04 11:17:12;;;;;;;26.60;19.47;;;;;;;10.39;45.19;96567.72;5026036;28;43415;-80
2020/12/04 11:19:39;;;;;;;24.13;18.87;;;;;;;10.31;45.99;96554.44;4996788;28;40639;-80
2020/12/04 11:22:06;;;;;;;24.90;18.80;;;;;;;10.17;46.16;96517.06;5029676;28;41461;-81
2020/12/04 11:24:34;;;;;;;24.90;18.67;;;;;;;10.06;46.07;96508.34;5082610;23;44589;-80
2020/12/04 11:27:01;;;;;;;27.30;20.33;;;;;;;10.05;45.02;96553.47;4992449;28;42074;-80
2020/12/04 11:29:28;;;;;;;26.90;18.83;;;;;;;9.95;45.44;96563.25;4992339;28;39915;-83
2020/12/04 11:31:55;;;;;;;25.97;19.03;;;;;;;9.91;45.94;96527.53;4996866;28;42123;-84
2020/12/04 11:37:21;;;;;;;30.40;21.70;;;;;;;10.47;45.44;96553.75;4987278;28;42616;-81
2020/12/04 11:39:48;;;;;;;22.67;18.00;;;;;;;10.64;45.16;96538.84;4989397;28;41824;-80
2020/12/04 11:42:15;;;;;;;25.20;18.23;;;;;;;10.42;44.83;96517.16;4982826;28;43369;-79
2020/12/04 11:44:42;;;;;;;25.23;18.40;;;;;;;10.11;44.99;96531.72;4973319;28;43568;-82
2020/12/04 11:47:09;;;;;;;26.93;18.87;;;;;;;9.71;46.30;96516.25;5074874;23;43642;-78
2020/12/04 11:49:36;;;;;;;25.93;18.23;;;;;;;9.45;46.83;96516.09;5011688;28;40037;-81
2020/12/04 11:52:03;;;;;;;29.00;19.30;;;;;;;9.23;47.14;96524.38;5006628;28;43182;-79
2020/12/04 11:54:31;;;;;;;23.83;18.33;;;;;;;8.94;47.93;96498.06;4991404;28;42804;-82
2020/12/04 11:56:58;;;;;;;24.93;18.67;;;;;;;8.74;48.06;96497.31;5009679;28;42348;-81
2020/12/04 11:59:25;;;;;;;26.03;17.73;;;;;;;8.69;49.06;96503.97;5096571;22;40749;-81
2020/12/04 12:01:52;;;;;;;25.80;18.37;;;;;;;8.54;49.27;96516.75;5010244;28;41802;-81
2020/12/04 12:04:20;;;;;;;23.83;18.07;;;;;;;8.29;49.45;96518.94;5027234;28;44495;-78
2020/12/04 12:06:47;;;;;;;28.10;19.77;;;;;;;8.32;49.56;96532.88;5030923;28;42700;-79
2020/12/04 12:09:14;;;;;;;21.83;17.00;;;;;;;8.08;49.90;96510.34;5030584;28;40801;-81
2020/12/04 12:11:42;;;;;;;24.00;18.50;;;;;;;8.11;50.09;96532.97;5097247;23;41463;-77
2020/12/04 12:14:09;;;;;;;22.13;17.23;;;;;;;8.02;50.38;96558.34;4994042;28;44213;-79
2020/12/04 12:16:36;;;;;;;25.40;17.90;;;;;;;7.90;50.49;96564.72;4995741;28;42986;-81
2020/12/04 12:19:03;;;;;;;28.30;17.43;;;;;;;7.68;50.95;96544.66;5011350;28;39583;-81
2020/12/04 12:21:30;;;;;;;25.23;16.37;;;;;;;7.75;51.64;96529.19;5099147;22;43806;-79
2020/12/04 12:23:57;;;;;;;25.93;18.00;;;;;;;7.65;51.57;96515.16;4995198;28;44501;-80
2020/12/04 12:26:25;;;;;;;24.73;17.83;;;;;;;7.63;51.48;96540.78;5028983;28;42732;-77
2020/12/04 12:28:52;;;;;;;24.67;17.50;;;;;;;7.56;52.12;96536.03;5011492;28;40776;-79
2020/12/04 12:31:20;;;;;;;23.03;16.50;;;;;;;7.47;52.26;96528.94;5011086;28;42634;-78
2020/12/04 12:33:50;;;;;;;27.00;18.13;;;;;;;7.36;52.98;96515.88;5074926;23;43097;-80
2020/12/04 12:36:17;;;;;;;27.33;17.97;;;;;;;7.22;52.73;96521.50;4976307;28;42193;-78
2020/12/04 12:38:44;;;;;;;27.00;16.97;;;;;;;7.16;52.65;96532.59;4991638;28;39682;-79
2020/12/04 12:41:11;;;;;;;21.63;15.30;;;;;;;7.05;53.28;96503.69;4990615;28;42096;-81
2020/12/04 12:43:38;;;;;;;25.33;17.10;;;;;;;6.99;53.96;96477.94;5007952;28;43485;-78
2020/12/04 12:46:07;;;;;;;29.33;17.63;;;;;;;6.96;53.87;96443.97;5110519;22;41860;-78
2020/12/04 12:48:34;;;;;;;23.17;16.83;;;;;;;6.83;54.24;96437.16;5029156;28;39986;-80
2020/12/04 12:51:01;;;;;;;26.63;15.43;;;;;;;6.68;54.35;96462.13;5010401;28;41356;-78
2020/12/04 12:53:28;;;;;;;21.03;15.63;;;;;;;6.36;53.94;96446.47;5011731;28;42613;-78
2020/12/04 12:58:53;;;;;;;22.30;16.23;;;;;;;6.41;55.00;96473.19;4985513;28;40265;-80
2020/12/04 13:01:21;;;;;;;22.40;16.07;;;;;;;6.38;54.74;96483.13;4988286;28;41766;-81
2020/12/04 13:03:48;;;;;;;23.50;15.43;;;;;;;6.26;55.06;96468.38;4987888;28;42896;-81
2020/12/04 13:06:15;;;;;;;20.73;14.50;;;;;;;6.31;55.25;96466.19;4972330;28;43461;-79
2020/12/04 13:08:42;;;;;;;20.60;13.93;;;;;;;6.29;55.95;96457.63;5083665;22;40127;-77
2020/12/04 13:11:09;;;;;;;22.10;15.13;;;;;;;6.35;55.55;96468.44;5008269;28;41270;-81
2020/12/04 13:13:36;;;;;;;21.73;15.10;;;;;;;6.33;55.68;96477.41;5024004;28;43522;-80
2020/12/04 13:16:04;;;;;;;21.63;15.30;;;;;;;6.24;55.20;96473.75;4991560;28;42363;-81
2020/12/04 13:18:32;;;;;;;20.10;14.43;;;;;;;6.20;55.67;96474.13;5008210;28;39757;-79
2020/12/04 13:20:59;;;;;;;19.93;14.93;;;;;;;6.18;55.81;96471.66;5106264;22;42494;-80
2020/12/04 13:23:26;;;;;;;22.93;15.50;;;;;;;6.17;55.91;96469.16;5027422;28;43570;-80
2020/12/04 13:25:53;;;;;;;22.43;15.07;;;;;;;6.13;55.83;96474.66;5027316;28;42137;-81
2020/12/04 13:28:21;;;;;;;25.90;15.30;;;;;;;6.08;55.81;96476.81;5026220;28;40064;-82
2020/12/04 13:33:29;;;;;;;20.47;14.20;;;;;;;6.03;56.33;96462.41;4987931;28;20260;-82
2020/12/04 13:35:57;;;;;;;23.53;14.00;;;;;;;6.03;56.92;96452.75;4955783;28;42858;-83
2020/12/04 13:38:24;;;;;;;20.90;14.73;;;;;;;5.99;56.56;96448.69;4974112;28;40196;-83
2020/12/04 13:40:51;;;;;;;20.50;14.80;;;;;;;5.93;57.14;96454.47;4987569;28;41039;-83
2020/12/04 13:43:18;;;;;;;23.23;14.83;;;;;;;5.87;57.05;96446.19;5093013;22;42660;-77
2020/12/04 13:45:45;;;;;;;20.33;15.13;;;;;;;5.82;57.40;96438.69;5047091;28;43403;-80
2020/12/04 13:48:12;;;;;;;21.77;14.93;;;;;;;5.80;57.30;96440.63;5030241;28;40596;-82
2020/12/04 13:50:40;;;;;;;20.57;14.73;;;;;;;5.78;57.56;96450.41;5022974;28;42487;-80
2020/12/04 13:53:07;;;;;;;26.03;16.30;;;;;;;5.72;57.56;96454.38;5028481;28;42299;-81
2020/12/04 13:55:35;;;;;;;21.93;15.40;;;;;;;5.69;58.15;96465.09;5132861;22;43760;-83
2020/12/04 13:58:01;;;;;;;20.77;14.07;;;;;;;5.69;57.93;96459.03;5067517;28;41406;-82
2020/12/04 14:00:28;;;;;;;20.23;13.47;;;;;;;5.68;57.99;96457.38;5065981;28;41756;-81
2020/12/04 14:02:56;;;;;;;21.03;14.80;;;;;;;5.63;58.00;96454.28;5067580;28;42514;-80
2020/12/04 14:05:24;;;;;;;20.43;15.03;;;;;;;5.58;58.38;96453.81;5070148;28;41906;-81
2020/12/04 14:07:51;;;;;;;21.83;15.03;;;;;;;5.54;58.54;96439.28;5099863;23;41032;-82
2020/12/04 14:10:19;;;;;;;21.10;14.87;;;;;;;5.51;58.61;96436.91;5009458;28;41492;-82
2020/12/04 14:12:46;;;;;;;22.60;15.33;;;;;;;5.32;58.54;96419.16;5025724;28;42843;-80
2020/12/04 14:15:13;;;;;;;20.10;14.43;;;;;;;5.34;58.95;96420.72;5009847;28;42575;-82
2020/12/04 14:17:41;;;;;;;24.77;15.50;;;;;;;5.26;58.81;96430.16;5084807;22;41192;-81
2020/12/04 14:20:08;;;;;;;22.43;16.00;;;;;;;5.33;58.75;96455.78;5003067;28;41190;-79
2020/12/04 14:22:40;;;;;;;21.20;15.17;;;;;;;5.28;58.69;96455.34;4974186;28;44674;-80
2020/12/04 14:25:07;;;;;;;20.47;14.27;;;;;;;5.28;59.09;96460.59;4990669;28;42902;-79
2020/12/04 14:27:35;;;;;;;21.63;14.97;;;;;;;5.25;59.01;96466.06;4974391;28;40024;-79
2020/12/04 14:30:04;;;;;;;19.60;14.60;;;;;;;5.18;58.86;96464.91;5076306;22;42390;-78
2020/12/04 14:32:32;;;;;;;23.40;15.07;;;;;;;5.16;59.28;96463.34;4987176;28;43751;-77
2020/12/04 14:34:59;;;;;;;20.73;13.90;;;;;;;5.13;59.36;96456.53;4980168;28;42685;-79
2020/12/04 14:37:26;;;;;;;24.73;15.83;;;;;;;5.09;59.40;96464.75;4986035;28;40141;-79
2020/12/04 14:39:54;;;;;;;23.10;15.27;;;;;;;5.04;59.80;96465.97;4974613;28;42295;-78
2020/12/04 14:42:21;;;;;;;20.13;13.37;;;;;;;5.03;59.66;96471.34;5110949;23;43383;-80
2020/12/04 14:44:49;;;;;;;21.23;14.47;;;;;;;4.99;60.11;96454.16;4984322;28;43620;-82
2020/12/04 14:47:16;;;;;;;20.20;14.30;;;;;;;4.97;60.07;96461.31;4973675;28;40719;-84
2020/12/04 14:49:44;;;;;;;21.63;13.13;;;;;;;4.92;60.14;96459.06;4993381;28;41580;-82
2020/12/04 14:52:11;;;;;;;20.33;13.73;;;;;;;4.90;59.85;96460.13;5008734;28;44492;-81
2020/12/04 14:54:38;;;;;;;20.03;15.00;;;;;;;4.90;60.27;96454.91;5115303;22;42333;-79
2020/12/04 14:57:05;;;;;;;19.50;14.17;;;;;;;4.88;60.64;96456.78;4997092;28;41367;-80
2020/12/04 14:59:32;;;;;;;21.10;15.07;;;;;;;4.80;60.76;96446.09;5012941;28;42221;-81
2020/12/04 15:02:01;;;;;;;19.93;14.23;;;;;;;4.77;61.01;96447.16;4995519;28;45157;-80
2020/12/04 15:04:28;;;;;;;22.73;15.53;;;;;;;4.69;61.39;96447.75;5096256;22;43030;-79
2020/12/04 15:06:55;;;;;;;20.73;14.73;;;;;;;4.60;61.42;96453.69;5037566;28;39655;-81
2020/12/04 15:09:22;;;;;;;21.83;14.20;;;;;;;4.52;61.72;96437.72;5037628;28;41597;-79
2020/12/04 15:11:50;;;;;;;19.73;13.87;;;;;;;4.44;62.24;96432.25;5021849;28;44471;-76
2020/12/04 15:14:17;;;;;;;19.67;13.93;;;;;;;4.34;62.19;96431.25;5010789;28;42493;-80
2020/12/04 15:16:44;;;;;;;30.17;20.63;;;;;;;4.25;62.57;96447.69;5102271;23;40832;-78
2020/12/04 15:19:12;;;;;;;24.53;15.93;;;;;;;4.16;63.00;96451.00;5108281;22;42972;-76
2020/12/04 15:21:39;;;;;;;19.73;14.73;;;;;;;4.02;63.25;96440.72;5031854;28;43479;-77
2020/12/04 15:24:06;;;;;;;21.43;13.80;;;;;;;4.06;63.28;96452.66;5048091;28;42880;-76
2020/12/04 15:26:33;;;;;;;21.87;13.53;;;;;;;4.03;63.17;96455.50;5031044;28;39874;-76
2020/12/04 15:29:00;;;;;;;20.97;14.50;;;;;;;4.00;63.37;96458.31;5122352;22;42533;-77
2020/12/04 15:31:28;;;;;;;18.80;13.00;;;;;;;3.97;63.49;96460.22;5011663;28;43234;-76
2020/12/04 15:33:54;;;;;;;22.77;15.50;;;;;;;3.91;63.95;96455.47;5011031;28;43055;-75
2020/12/04 15:36:22;;;;;;;21.17;13.70;;;;;;;3.88;63.58;96450.44;5032303;28;40330;-77
2020/12/04 15:38:57;;;;;;;18.53;13.60;;;;;;;3.88;64.18;96450.44;5032397;28;41445;-77
2020/12/04 15:41:24;;;;;;;23.17;13.97;;;;;;;3.84;64.05;96453.38;5105781;23;42365;-76
2020/12/04 15:43:51;;;;;;;20.03;13.93;;;;;;;3.85;63.91;96452.44;5023216;28;42895;-77
2020/12/04 15:46:20;;;;;;;22.27;15.60;;;;;;;3.83;63.63;96452.56;5031865;28;39686;-76
2020/12/04 15:48:48;;;;;;;27.80;16.23;;;;;;;3.81;64.00;96458.88;5049124;28;41381;-76
2020/12/04 15:54:14;;;;;;;24.13;16.00;;;;;;;3.74;64.21;96475.97;5007378;28;42653;-77
2020/12/04 15:56:41;;;;;;;31.17;19.33;;;;;;;3.70;64.17;96478.00;5024394;28;39760;-77
2020/12/04 15:59:08;;;;;;;33.40;20.93;;;;;;;3.68;64.56;96489.50;5007434;28;41259;-77
2020/12/04 16:01:35;;;;;;;35.63;23.17;;;;;;;3.67;64.52;96504.38;5007387;28;42796;-76
2020/12/04 16:04:02;;;;;;;29.20;20.00;;;;;;;3.69;64.27;96512.94;5108073;22;43262;-77
2020/12/04 16:06:33;;;;;;;28.07;17.20;;;;;;;3.71;64.47;96511.03;4994967;28;40872;-77
2020/12/04 16:09:00;;;;;;;23.53;15.20;;;;;;;3.73;64.09;96503.91;5029564;28;42264;-78
2020/12/04 16:11:28;;;;;;;22.80;16.37;;;;;;;3.66;64.09;96483.53;5010580;28;42641;-77
2020/12/04 16:13:55;;;;;;;27.47;17.33;;;;;;;3.78;63.99;96500.97;5010833;28;42876;-76
2020/12/04 16:16:24;;;;;;;25.73;16.83;;;;;;;3.68;64.46;96487.72;5116307;22;40574;-77
2020/12/04 16:18:51;;;;;;;23.80;15.97;;;;;;;3.79;64.57;96505.25;4995019;28;42096;-79
2020/12/04 16:21:19;;;;;;;26.63;16.33;;;;;;;3.80;64.24;96506.94;5010465;28;43445;-77
2020/12/04 16:23:46;;;;;;;23.67;14.93;;;;;;;3.76;64.28;96508.09;5010311;28;41903;-77
2020/12/04 16:26:21;;;;;;;21.13;13.63;;;;;;;3.82;64.15;96520.75;5066393;22;41214;31
2020/12/04 16:28:49;;;;;;;21.17;13.83;;;;;;;3.79;64.29;96516.56;4986814;28;42124;-77
2020/12/04 16:31:19;;;;;;;23.03;15.20;;;;;;;3.82;64.12;96512.91;4989281;28;42760;-78
2020/12/04 16:33:47;;;;;;;23.57;14.57;;;;;;;3.81;64.22;96511.22;4987458;28;41565;-77
2020/12/04 16:36:14;;;;;;;26.57;15.33;;;;;;;3.78;64.59;96512.28;4971545;28;40772;-77
2020/12/04 16:38:43;;;;;;;23.57;14.67;;;;;;;3.77;64.32;96515.00;5088799;22;42393;-76
2020/12/04 16:41:10;;;;;;;23.90;15.47;;;;;;;3.73;64.29;96514.38;5019177;28;42638;-77
2020/12/04 16:43:38;;;;;;;28.10;17.77;;;;;;;3.71;64.47;96525.94;5047492;28;42720;-77
2020/12/04 16:46:06;;;;;;;20.37;13.73;;;;;;;3.69;64.16;96528.66;5013868;28;39701;-77
2020/12/04 16:48:34;;;;;;;24.47;14.70;;;;;;;3.67;64.43;96538.38;5027884;28;41778;-77
2020/12/04 16:51:01;;;;;;;22.20;14.60;;;;;;;3.58;64.16;96521.59;5107689;22;43648;-77
2020/12/04 16:53:28;;;;;;;19.60;13.73;;;;;;;3.58;64.36;96511.13;5030843;28;42156;-78
2020/12/04 16:55:55;;;;;;;18.50;12.97;;;;;;;3.57;64.33;96529.53;5048111;28;40629;-76
2020/12/04 16:58:23;;;;;;;20.53;12.60;;;;;;;3.33;64.14;96500.72;5047297;28;43113;-77
2020/12/04 17:00:50;;;;;;;20.63;14.23;;;;;;;3.49;64.22;96521.38;5046873;28;42922;-77
2020/12/04 17:03:18;;;;;;;18.60;13.33;;;;;;;3.43;64.52;96501.75;5117059;23;42100;-76
2020/12/04 17:05:45;;;;;;;20.47;13.70;;;;;;;3.44;64.29;96497.34;5046313;28;39768;-76
2020/12/04 17:08:13;;;;;;;17.33;12.60;;;;;;;3.34;64.61;96478.03;5017856;28;43798;-77
2020/12/04 17:10:40;;;;;;;18.03;13.00;;;;;;;3.40;64.54;96493.28;5026376;28;43661;-77
2020/12/04 17:13:07;;;;;;;21.20;13.47;;;;;;;3.36;64.42;96510.13;5112095;22;42928;-77
2020/12/04 17:15:34;;;;;;;20.57;14.43;;;;;;;3.33;64.64;96494.66;5029176;28;39779;-77
2020/12/04 17:18:01;;;;;;;18.50;12.57;;;;;;;3.11;64.71;96456.09;5030203;28;41711;-77
2020/12/04 17:20:29;;;;;;;19.67;13.73;;;;;;;3.29;64.81;96503.66;5027484;28;43178;-76
2020/12/04 17:22:56;;;;;;;21.83;13.37;;;;;;;3.25;65.15;96503.88;5050725;28;42862;-76
2020/12/04 17:25:23;;;;;;;22.50;13.83;;;;;;;3.25;64.95;96524.78;5125115;22;40606;-77
2020/12/04 17:27:50;;;;;;;19.93;13.50;;;;;;;3.20;64.81;96516.47;5026442;28;41609;-77
2020/12/04 17:30:17;;;;;;;18.70;12.60;;;;;;;3.21;64.99;96523.34;5026301;28;43359;-76
2020/12/04 17:32:44;;;;;;;18.53;13.47;;;;;;;3.21;65.06;96523.34;5026567;28;42897;-77
2020/12/04 17:35:12;;;;;;;27.63;17.83;;;;;;;3.20;64.68;96536.53;5026276;28;39907;-77
2020/12/04 17:37:41;;;;;;;26.07;17.30;;;;;;;3.15;64.77;96534.22;5123306;22;41946;-77
2020/12/04 17:40:08;;;;;;;26.10;16.80;;;;;;;3.16;64.96;96530.69;5051047;28;42565;-78
2020/12/04 17:42:36;;;;;;;25.03;15.83;;;;;;;3.14;64.91;96527.31;5033310;28;43576;-77
2020/12/04 17:45:04;;;;;;;20.80;13.50;;;;;;;2.93;64.87;96497.47;5050966;28;39841;-77
2020/12/04 17:47:32;;;;;;;23.33;15.60;;;;;;;3.01;64.92;96510.81;5033628;28;41966;-76
2020/12/04 17:49:59;;;;;;;22.43;13.70;;;;;;;3.06;65.40;96516.59;5114251;23;43707;-75
2020/12/04 17:52:26;;;;;;;26.53;16.30;;;;;;;3.01;65.94;96505.59;5029480;28;42082;-76
2020/12/04 17:55:11;;;;;;;21.70;14.67;;;;;;;2.99;66.60;96498.81;5030751;28;39986;-78
